FLX717 SBGL-SBGR
Flight info
| Callsign | FLX717 |
|---|---|
| Flight time | N/A |
| Altitude | 32000 |
| Route | SIDUR UZ10 EDMUS |
| Aircraft | B77W/H-SDE1E2E3FGHIJ2J3J4J5M1RWXY/LB1D1 |
Departure
| Time | 2026-05-06 14:27 |
|---|---|
| Airport | Rio Galeão – Tom Jobim International Airport (SBGL) |
Arrival
| Time | N/A |
|---|---|
| Airport | São Paulo/Guarulhos–Governor André Franco Montoro International Airport (SBGR) |
| Time | Latitude | Longitude | Altitude | Speed | Heading |
|---|---|---|---|---|---|
| 2026-05-06 14:01 | -22.81605 | -43.24949 | 37 ft | 0 kts | 217° |
| 2026-05-06 14:15 | -22.81601 | -43.24945 | 37 ft | 2 kts | 217° |
| 2026-05-06 14:15 | -22.81589 | -43.24936 | 37 ft | 2 kts | 217° |
| 2026-05-06 14:16 | -22.81577 | -43.24925 | 37 ft | 2 kts | 231° |
| 2026-05-06 14:16 | -22.81570 | -43.24912 | 37 ft | 2 kts | 248° |
| 2026-05-06 14:16 | -22.81565 | -43.24896 | 37 ft | 2 kts | 263° |
| 2026-05-06 14:16 | -22.81565 | -43.24880 | 37 ft | 2 kts | 278° |
| 2026-05-06 14:17 | -22.81569 | -43.24865 | 37 ft | 2 kts | 293° |
| 2026-05-06 14:17 | -22.81574 | -43.24853 | 37 ft | 0 kts | 306° |
| 2026-05-06 14:17 | -22.81576 | -43.24851 | 37 ft | 0 kts | 307° |
| 2026-05-06 14:19 | -22.81574 | -43.24853 | 37 ft | 2 kts | 307° |
| 2026-05-06 14:19 | -22.81547 | -43.24893 | 37 ft | 9 kts | 307° |
| 2026-05-06 14:20 | -22.81506 | -43.24952 | 37 ft | 9 kts | 306° |
| 2026-05-06 14:20 | -22.81484 | -43.25016 | 37 ft | 9 kts | 265° |
| 2026-05-06 14:20 | -22.81521 | -43.25070 | 37 ft | 10 kts | 216° |
| 2026-05-06 14:20 | -22.81584 | -43.25118 | 37 ft | 11 kts | 215° |
| 2026-05-06 14:21 | -22.81601 | -43.25193 | 37 ft | 12 kts | 292° |
| 2026-05-06 14:21 | -22.81552 | -43.25274 | 37 ft | 13 kts | 304° |
| 2026-05-06 14:21 | -22.81498 | -43.25360 | 37 ft | 14 kts | 306° |
| 2026-05-06 14:21 | -22.81435 | -43.25448 | 37 ft | 15 kts | 307° |
| 2026-05-06 14:22 | -22.81372 | -43.25545 | 37 ft | 15 kts | 305° |
| 2026-05-06 14:22 | -22.81307 | -43.25645 | 37 ft | 16 kts | 305° |
| 2026-05-06 14:22 | -22.81238 | -43.25748 | 37 ft | 17 kts | 305° |
| 2026-05-06 14:22 | -22.81175 | -43.25844 | 37 ft | 13 kts | 306° |
| 2026-05-06 14:23 | -22.81139 | -43.25898 | 37 ft | 9 kts | 306° |
| 2026-05-06 14:23 | -22.81077 | -43.25919 | 37 ft | 11 kts | 23° |
| 2026-05-06 14:23 | -22.81001 | -43.25865 | 37 ft | 14 kts | 35° |
| 2026-05-06 14:23 | -22.80912 | -43.25797 | 37 ft | 16 kts | 35° |
| 2026-05-06 14:24 | -22.80813 | -43.25721 | 37 ft | 18 kts | 35° |
| 2026-05-06 14:24 | -22.80705 | -43.25639 | 37 ft | 18 kts | 35° |
| 2026-05-06 14:24 | -22.80612 | -43.25568 | 37 ft | 13 kts | 35° |
| 2026-05-06 14:24 | -22.80530 | -43.25538 | 37 ft | 12 kts | 344° |
| 2026-05-06 14:25 | -22.80456 | -43.25585 | 37 ft | 12 kts | 325° |
| 2026-05-06 14:25 | -22.80382 | -43.25613 | 37 ft | 11 kts | 11° |
| 2026-05-06 14:25 | -22.80316 | -43.25570 | 37 ft | 11 kts | 37° |
| 2026-05-06 14:25 | -22.80256 | -43.25519 | 37 ft | 11 kts | 37° |
| 2026-05-06 14:26 | -22.80179 | -43.25464 | 37 ft | 17 kts | 53° |
| 2026-05-06 14:26 | -22.80099 | -43.25192 | 37 ft | 75 kts | 74° |
| 2026-05-06 14:26 | -22.79882 | -43.24347 | 38 ft | 156 kts | 74° |
| 2026-05-06 14:26 | -22.79536 | -43.23021 | 436 ft | 193 kts | 73° |
| 2026-05-06 14:27 | -22.79218 | -43.21670 | 1596 ft | 184 kts | 77° |
| 2026-05-06 14:27 | -22.78959 | -43.20376 | 2346 ft | 184 kts | 76° |
| 2026-05-06 14:27 | -22.78663 | -43.18981 | 2817 ft | 199 kts | 76° |
| 2026-05-06 14:27 | -22.78335 | -43.17459 | 3330 ft | 214 kts | 76° |
| 2026-05-06 14:28 | -22.77989 | -43.15849 | 3843 ft | 229 kts | 76° |
| 2026-05-06 14:28 | -22.77619 | -43.14127 | 4383 ft | 245 kts | 76° |
| 2026-05-06 14:28 | -22.77223 | -43.12284 | 5026 ft | 256 kts | 77° |
| 2026-05-06 14:28 | -22.76820 | -43.10408 | 5834 ft | 260 kts | 77° |
| 2026-05-06 14:29 | -22.76411 | -43.08510 | 6667 ft | 262 kts | 77° |
| 2026-05-06 14:29 | -22.75989 | -43.06551 | 7384 ft | 269 kts | 77° |
| 2026-05-06 14:29 | -22.75571 | -43.04586 | 8168 ft | 272 kts | 77° |
| 2026-05-06 14:29 | -22.75051 | -43.02603 | 8877 ft | 278 kts | 65° |
| 2026-05-06 14:30 | -22.73921 | -43.00928 | 9559 ft | 283 kts | 42° |
| 2026-05-06 14:30 | -22.72200 | -42.99867 | 10253 ft | 289 kts | 18° |
| 2026-05-06 14:30 | -22.70157 | -42.99636 | 10642 ft | 309 kts | 354° |
| 2026-05-06 14:30 | -22.68002 | -43.00294 | 11004 ft | 329 kts | 341° |
| 2026-05-06 14:31 | -22.65824 | -43.01223 | 11454 ft | 346 kts | 338° |
| 2026-05-06 14:31 | -22.63670 | -43.02509 | 11922 ft | 363 kts | 326° |
| 2026-05-06 14:31 | -22.61736 | -43.04335 | 12460 ft | 378 kts | 313° |
| 2026-05-06 14:31 | -22.60191 | -43.06650 | 13260 ft | 385 kts | 300° |
| 2026-05-06 14:32 | -22.59098 | -43.09297 | 14131 ft | 391 kts | 291° |
| 2026-05-06 14:32 | -22.58157 | -43.12056 | 15140 ft | 393 kts | 289° |
| 2026-05-06 14:32 | -22.57239 | -43.14814 | 16138 ft | 397 kts | 289° |
| 2026-05-06 14:32 | -22.56305 | -43.17638 | 17131 ft | 401 kts | 288° |
| 2026-05-06 14:33 | -22.55376 | -43.20462 | 18081 ft | 405 kts | 288° |
| 2026-05-06 14:33 | -22.54494 | -43.23385 | 18835 ft | 411 kts | 282° |
| 2026-05-06 14:33 | -22.54027 | -43.26441 | 19083 ft | 413 kts | 272° |
| 2026-05-06 14:33 | -22.54066 | -43.29507 | 19114 ft | 408 kts | 262° |
| 2026-05-06 14:34 | -22.54608 | -43.32514 | 19245 ft | 409 kts | 254° |
| 2026-05-06 14:34 | -22.55332 | -43.35475 | 19235 ft | 408 kts | 253° |
| 2026-05-06 14:34 | -22.56060 | -43.38447 | 19222 ft | 406 kts | 254° |
| 2026-05-06 14:34 | -22.56768 | -43.41376 | 19220 ft | 407 kts | 254° |
| 2026-05-06 14:35 | -22.57481 | -43.44354 | 19212 ft | 407 kts | 254° |
| 2026-05-06 14:35 | -22.58184 | -43.47310 | 19213 ft | 407 kts | 254° |
| 2026-05-06 14:35 | -22.58882 | -43.50264 | 19211 ft | 407 kts | 254° |
| 2026-05-06 14:35 | -22.59581 | -43.53229 | 19220 ft | 408 kts | 254° |
| 2026-05-06 14:36 | -22.60275 | -43.56187 | 19203 ft | 407 kts | 254° |
| 2026-05-06 14:36 | -22.60971 | -43.59161 | 19196 ft | 407 kts | 254° |
| 2026-05-06 14:36 | -22.61676 | -43.62172 | 19523 ft | 423 kts | 254° |
| 2026-05-06 14:36 | -22.62387 | -43.65224 | 20724 ft | 420 kts | 255° |
| 2026-05-06 14:37 | -22.63101 | -43.68289 | 21965 ft | 416 kts | 255° |
| 2026-05-06 14:37 | -22.63802 | -43.71302 | 22839 ft | 420 kts | 255° |
| 2026-05-06 14:37 | -22.64523 | -43.74408 | 23617 ft | 427 kts | 255° |
| 2026-05-06 14:37 | -22.65241 | -43.77496 | 24456 ft | 432 kts | 254° |
| 2026-05-06 14:38 | -22.65977 | -43.80675 | 25386 ft | 434 kts | 254° |
| 2026-05-06 14:38 | -22.66703 | -43.83808 | 26294 ft | 436 kts | 254° |
| 2026-05-06 14:38 | -22.67447 | -43.87024 | 27128 ft | 440 kts | 254° |
| 2026-05-06 14:38 | -22.68186 | -43.90218 | 27858 ft | 445 kts | 253° |
| 2026-05-06 14:39 | -22.68940 | -43.93483 | 28669 ft | 449 kts | 253° |
| 2026-05-06 14:39 | -22.69691 | -43.96740 | 29502 ft | 451 kts | 253° |
| 2026-05-06 14:39 | -22.70445 | -44.00015 | 30353 ft | 450 kts | 253° |
| 2026-05-06 14:39 | -22.71192 | -44.03261 | 31340 ft | 445 kts | 253° |
| 2026-05-06 14:40 | -22.71936 | -44.06499 | 32040 ft | 445 kts | 252° |
| 2026-05-06 14:40 | -22.72686 | -44.09760 | 32219 ft | 452 kts | 252° |
| 2026-05-06 14:40 | -22.73457 | -44.13112 | 32238 ft | 464 kts | 253° |
| 2026-05-06 14:40 | -22.74248 | -44.16551 | 32263 ft | 476 kts | 253° |
| 2026-05-06 14:41 | -22.76529 | -44.23341 | 32288 ft | 483 kts | 240° |
| 2026-05-06 14:41 | -22.80087 | -44.29501 | 32290 ft | 480 kts | 234° |
| 2026-05-06 14:42 | -22.83746 | -44.35546 | 32280 ft | 479 kts | 234° |
| 2026-05-06 14:42 | -22.87399 | -44.41592 | 32272 ft | 479 kts | 234° |
| 2026-05-06 14:43 | -22.91041 | -44.47630 | 32248 ft | 480 kts | 234° |
| 2026-05-06 14:43 | -22.94657 | -44.53634 | 32250 ft | 478 kts | 234° |
| 2026-05-06 14:44 | -22.98313 | -44.59710 | 32259 ft | 480 kts | 235° |
| 2026-05-06 14:45 | -23.03223 | -44.69115 | 32275 ft | 483 kts | 247° |
| 2026-05-06 14:45 | -23.05004 | -44.76153 | 32297 ft | 486 kts | 253° |
| 2026-05-06 14:46 | -23.06595 | -44.83231 | 32292 ft | 485 kts | 253° |
| 2026-05-06 14:46 | -23.08192 | -44.90355 | 32296 ft | 485 kts | 253° |
| 2026-05-06 14:46 | -23.08981 | -44.93881 | 32166 ft | 474 kts | 253° |
| 2026-05-06 14:47 | -23.09744 | -44.97298 | 31490 ft | 471 kts | 253° |
| 2026-05-06 14:47 | -23.10518 | -45.00756 | 30738 ft | 468 kts | 253° |
| 2026-05-06 14:47 | -23.11281 | -45.04179 | 30263 ft | 461 kts | 253° |
| 2026-05-06 14:47 | -23.12029 | -45.07531 | 29763 ft | 455 kts | 253° |
| 2026-05-06 14:48 | -23.12760 | -45.10814 | 29251 ft | 449 kts | 253° |
| 2026-05-06 14:48 | -23.13489 | -45.14087 | 28715 ft | 444 kts | 253° |
| 2026-05-06 14:48 | -23.14210 | -45.17327 | 28193 ft | 439 kts | 253° |
| 2026-05-06 14:48 | -23.14919 | -45.20519 | 27675 ft | 434 kts | 253° |
| 2026-05-06 14:49 | -23.15618 | -45.23666 | 27171 ft | 429 kts | 253° |
| 2026-05-06 14:49 | -23.16309 | -45.26782 | 26654 ft | 424 kts | 253° |
| 2026-05-06 14:49 | -23.16997 | -45.29889 | 26134 ft | 419 kts | 254° |
| 2026-05-06 14:49 | -23.17226 | -45.30920 | 25962 ft | 418 kts | 254° |